Alessandro F — IBVQ — position and weather

sailwx.info

Track history (hours):
 
Tides and Currents Weather Stations Pressure Air Temp Water Temp Dewpoint Dewpoint Depression Visibility Wind Speed Wind Dir Waves Ship Positions

Alessandro F

Last reported at 2017-Aug-18 16:00 UTC. Time now 2017-Aug-18 16:09 UTC.
Position N 43°35' E 010°19'.

Length 100 m; draft 6.6 m.

Type: Ship (hazmat cat B). MMSI: 247046400.

Date/timePositionNaut miles runAvg speedWind from/ knotsBaromVisibWave heightAir tempDewpointWater temp
2017-Aug-18 16:00N 43°35' E 010°19'0 0.0
2017-Aug-18 15:30N 43°35' E 010°19'0 0.0
2017-Aug-18 15:00N 43°35' E 010°19'0 0.0
2017-Aug-18 14:30N 43°35' E 010°19'0 0.0
2017-Aug-18 13:30N 43°35' E 010°19'0 0.0
2017-Aug-18 13:00N 43°35' E 010°19'0 0.0
2017-Aug-18 12:30N 43°35' E 010°19'0 0.0
2017-Aug-18 12:00N 43°35' E 010°19'0 0.0
2017-Aug-18 11:30N 43°35' E 010°19'0 0.0
2017-Aug-18 11:00N 43°35' E 010°19'0 0.0
2017-Aug-18 10:30N 43°35' E 010°19'0 0.0
2017-Aug-18 10:00N 43°35' E 010°19'0 0.0
2017-Aug-18 09:30N 43°35' E 010°19'0 0.0
2017-Aug-18 09:00N 43°35' E 010°19'0 0.0
2017-Aug-18 08:30N 43°35' E 010°19'1 1.3
2017-Aug-18 08:00N 43°34' E 010°19'2 3.7
2017-Aug-18 07:30N 43°33' E 010°17'4 8.0
2017-Aug-18 07:00N 43°30' E 010°14'2 3.0
2017-Aug-18 06:30N 43°28' E 010°14'0 0.7
2017-Aug-18 06:00N 43°28' E 010°14'3 5.4
2017-Aug-18 05:30N 43°27' E 010°11'510.4
2017-Aug-18 05:00N 43°23' E 010°06'611.4
2017-Aug-18 04:30N 43°19' E 010°00'611.5
2017-Aug-18 04:00N 43°17' E 009°53'611.3
2017-Aug-18 03:30N 43°15' E 009°45'611.2
2017-Aug-18 03:00N 43°14' E 009°38'611.0
2017-Aug-18 02:30N 43°12' E 009°31'611.1
2017-Aug-18 02:00N 43°10' E 009°24'510.9
2017-Aug-18 01:30N 43°08' E 009°17'611.0
2017-Aug-18 01:00N 43°07' E 009°09'611.6
2017-Aug-18 00:30N 43°05' E 009°02'611.9
2017-Aug-17 23:59N 43°02' E 008°54'611.9
2017-Aug-17 23:30N 43°00' E 008°47'811.8
2017-Aug-17 22:49N 42°58' E 008°36'411.7
2017-Aug-17 22:30N 42°57' E 008°31'4711.9
2017-Aug-17 18:35N 42°42' E 007°31'111.8
2017-Aug-17 18:30N 42°41' E 007°30'2511.3
2017-Aug-17 16:17N 42°32' E 006°58'411.5
2017-Aug-17 15:55N 42°31' E 006°53'1711.0
2017-Aug-17 14:22N 42°26' E 006°31'411.7
2017-Aug-17 14:00N 42°25' E 006°25'611.8
2017-Aug-17 13:30N 42°23' E 006°17'2011.5
2017-Aug-17 11:43N 42°15' E 005°52'311.7
2017-Aug-17 11:31N 42°14' E 005°49'911.8
2017-Aug-17 10:43N 42°11' E 005°37'311.7
2017-Aug-17 10:30N 42°10' E 005°34'611.7
2017-Aug-17 10:00N 42°08' E 005°27'611.5
2017-Aug-17 09:30N 42°06' E 005°19'711.4
2017-Aug-17 08:55N 42°04' E 005°11'9711.4
2017-Aug-17 00:22N 41°31' E 003°08'411.4
2017-Aug-17 00:00N 41°30' E 003°03'611.7
2017-Aug-16 23:30N 41°28' E 002°55'1611.8
2017-Aug-16 22:11N 41°22' E 002°36'211.7
2017-Aug-16 21:59N 41°22' E 002°33'611.6
2017-Aug-16 21:31N 41°20' E 002°26'611.5
2017-Aug-16 21:00N 41°18' E 002°18'611.4
2017-Aug-16 20:29N 41°17' E 002°11'4 8.3
2017-Aug-16 20:00N 41°21' E 002°09'0 0.0
2017-Aug-16 08:37N 41°21' E 002°10'1 4.6
2017-Aug-16 08:29N 41°20' E 002°10'4 8.2
2017-Aug-16 08:00N 41°17' E 002°12'714.2
2017-Aug-16 07:30N 41°13' E 002°20'714.6
2017-Aug-16 07:00N 41°09' E 002°29'714.7
2017-Aug-16 06:30N 41°06' E 002°37'814.9
2017-Aug-16 06:00N 41°02' E 002°46'815.0
2017-Aug-16 05:30N 40°59' E 002°55'714.9
2017-Aug-16 05:00N 40°55' E 003°03'714.2
2017-Aug-16 04:30N 40°51' E 003°11'713.5
2017-Aug-16 04:00N 40°47' E 003°19'713.6
2017-Aug-16 03:27N 40°43' E 003°27'1 1.3
2017-Aug-16 02:45N 40°43' E 003°28'0 0.8
2017-Aug-16 02:28N 40°43' E 003°28'0 0.8
2017-Aug-16 02:00N 40°44' E 003°29'0 0.8
2017-Aug-16 01:30N 40°44' E 003°29'2 4.4
2017-Aug-16 01:00N 40°43' E 003°32'2513.2
2017-Aug-15 23:09N 40°31' E 003°60'213.7
2017-Aug-15 23:00N 40°31' E 004°02'1913.6
2017-Aug-15 21:36N 40°22' E 004°25'113.7
2017-Aug-15 21:30N 40°21' E 004°26'713.9
2017-Aug-15 21:00N 40°17' E 004°34'1314.0
2017-Aug-15 20:02N 40°11' E 004°49'113.9
2017-Aug-15 19:56N 40°10' E 004°51'1414.2
2017-Aug-15 18:59N 40°04' E 005°06'1914.1
2017-Aug-15 17:37N 39°54' E 005°28'214.3
2017-Aug-15 17:30N 39°54' E 005°30'714.2
2017-Aug-15 16:59N 39°50' E 005°39'714.2
2017-Aug-15 16:30N 39°47' E 005°46'714.2
2017-Aug-15 16:00N 39°43' E 005°54'713.9
2017-Aug-15 15:30N 39°40' E 006°02'2313.7
2017-Aug-15 13:50N 39°29' E 006°28'513.8
2017-Aug-15 13:29N 39°27' E 006°34'714.0
2017-Aug-15 13:00N 39°23' E 006°41'714.2
2017-Aug-15 12:30N 39°20' E 006°50'9313.6
2017-Aug-15 05:40N 38°43' E 008°40'214.0
2017-Aug-15 05:30N 38°43' E 008°43'5714.3
2017-Aug-15 01:32N 38°39' E 009°55'014.5
2017-Aug-15 01:30N 38°39' E 009°56'13914.2
2017-Aug-14 15:42N 38°28' E 012°53'314.0
2017-Aug-14 15:30N 38°27' E 012°56'713.9
2017-Aug-14 15:00N 38°27' E 013°05'714.1
2017-Aug-14 14:30N 38°26' E 013°14'714.2
2017-Aug-14 14:00N 38°26' E 013°23'714.3
2017-Aug-14 13:30N 38°25' E 013°32'814.0
2017-Aug-14 12:57N 38°24' E 013°42'4113.9
2017-Aug-14 10:00N 38°19' E 014°34'1013.6
2017-Aug-14 09:16N 38°18' E 014°46'513.8
2017-Aug-14 08:54N 38°17' E 014°53'613.9
2017-Aug-14 08:30N 38°17' E 014°60'713.8
2017-Aug-14 08:00N 38°18' E 015°08'713.3
2017-Aug-14 07:30N 38°19' E 015°17'713.4
2017-Aug-14 07:00N 38°21' E 015°25'612.8
2017-Aug-14 06:30N 38°21' E 015°33'713.2
2017-Aug-14 06:00N 38°18' E 015°41'5 9.7
2017-Aug-14 05:30N 38°14' E 015°37'612.1
2017-Aug-14 05:00N 38°08' E 015°37'611.9
2017-Aug-14 04:31N 38°02' E 015°36'713.1
2017-Aug-14 04:00N 37°56' E 015°37'812.9
2017-Aug-14 03:21N 37°52' E 015°47'40110.5
2017-Aug-12 13:12N 44°15' E 013°11'40 0.8
2017-Aug-10 11:18N 44°31' E 012°19'0 0.0
2017-Aug-10 11:00N 44°31' E 012°19'0 0.0
2017-Aug-10 10:19N 44°31' E 012°19'0 0.1
2017-Aug-10 10:00N 44°31' E 012°19'0 0.0
2017-Aug-10 09:29N 44°31' E 012°19'0 0.0
2017-Aug-10 08:52N 44°31' E 012°19'0 0.1
2017-Aug-10 08:30N 44°31' E 012°19'0 0.0
2017-Aug-10 08:00N 44°31' E 012°19'0 0.0
2017-Aug-10 07:28N 44°31' E 012°19'0 0.0
2017-Aug-10 06:54N 44°31' E 012°19'0 0.0
2017-Aug-10 05:54N 44°31' E 012°19'0 0.0
2017-Aug-10 05:30N 44°31' E 012°19'0 0.0
2017-Aug-10 05:00N 44°31' E 012°19'0 0.0
2017-Aug-10 04:10N 44°31' E 012°19'0 0.2
2017-Aug-10 03:56N 44°31' E 012°19'1 1.3
2017-Aug-10 03:30N 44°31' E 012°20'5 9.1
2017-Aug-10 03:00N 44°35' E 012°24'510.9
2017-Aug-10 02:30N 44°39' E 012°29'611.1
2017-Aug-10 02:00N 44°43' E 012°34'511.0
2017-Aug-10 01:30N 44°47' E 012°39'510.9
2017-Aug-10 01:00N 44°51' E 012°44'510.5
2017-Aug-10 00:30N 44°55' E 012°49'6 9.9
2017-Aug-09 23:56N 44°58' E 012°56'4 9.9
2017-Aug-09 23:30N 45°02' E 012°58'5 9.9
2017-Aug-09 23:00N 45°07' E 013°00'5 9.4
2017-Aug-09 22:30N 45°11' E 012°60'5 9.5
2017-Aug-09 22:00N 45°16' E 012°59'5 9.2
2017-Aug-09 21:30N 45°21' E 012°59'5 9.6
2017-Aug-09 21:00N 45°25' E 013°02'510.1
2017-Aug-09 20:30N 45°29' E 013°07'510.4
2017-Aug-09 20:00N 45°32' E 013°13'510.3
2017-Aug-09 19:30N 45°34' E 013°20'510.2
2017-Aug-09 19:00N 45°36' E 013°27'510.2
2017-Aug-09 18:30N 45°37' E 013°33'5 9.5
2017-Aug-09 18:00N 45°35' E 013°39'4 6.9
2017-Aug-09 17:26N 45°33' E 013°44'0 0.0
2017-Aug-09 16:50N 45°33' E 013°44'0 0.0
2017-Aug-09 16:29N 45°33' E 013°44'0 0.0
2017-Aug-09 15:56N 45°33' E 013°44'0 0.0
2017-Aug-09 15:26N 45°33' E 013°44'0 0.0
2017-Aug-09 14:59N 45°33' E 013°44'0 0.0
2017-Aug-09 14:23N 45°33' E 013°44'0 0.0
2017-Aug-09 13:56N 45°33' E 013°44'0 0.0
2017-Aug-09 13:30N 45°33' E 013°44'0 0.0
2017-Aug-09 13:00N 45°33' E 013°44'  
Track history (hours):
 
Tides and Currents Weather Stations Pressure Air Temp Water Temp Dewpoint Dewpoint Depression Visibility Wind Speed Wind Dir Waves Ship Positions

Alessandro F

Last reported at 2017-Aug-18 16:00 UTC. Time now 2017-Aug-18 16:09 UTC.
Position N 43°35' E 010°19'.

Length 100 m; draft 6.6 m.

Type: Ship (hazmat cat B). MMSI: 247046400.

Date/timePositionNaut miles runAvg speedWind from/ knotsBaromVisibWave heightAir tempDewpointWater temp
2017-Aug-18 16:00N 43°35' E 010°19'0 0.0
2017-Aug-18 15:30N 43°35' E 010°19'0 0.0
2017-Aug-18 15:00N 43°35' E 010°19'0 0.0
2017-Aug-18 14:30N 43°35' E 010°19'0 0.0
2017-Aug-18 13:30N 43°35' E 010°19'0 0.0
2017-Aug-18 13:00N 43°35' E 010°19'0 0.0
2017-Aug-18 12:30N 43°35' E 010°19'0 0.0
2017-Aug-18 12:00N 43°35' E 010°19'0 0.0
2017-Aug-18 11:30N 43°35' E 010°19'0 0.0
2017-Aug-18 11:00N 43°35' E 010°19'0 0.0
2017-Aug-18 10:30N 43°35' E 010°19'0 0.0
2017-Aug-18 10:00N 43°35' E 010°19'0 0.0
2017-Aug-18 09:30N 43°35' E 010°19'0 0.0
2017-Aug-18 09:00N 43°35' E 010°19'0 0.0
2017-Aug-18 08:30N 43°35' E 010°19'1 1.3
2017-Aug-18 08:00N 43°34' E 010°19'2 3.7
2017-Aug-18 07:30N 43°33' E 010°17'4 8.0
2017-Aug-18 07:00N 43°30' E 010°14'2 3.0
2017-Aug-18 06:30N 43°28' E 010°14'0 0.7
2017-Aug-18 06:00N 43°28' E 010°14'3 5.4
2017-Aug-18 05:30N 43°27' E 010°11'510.4
2017-Aug-18 05:00N 43°23' E 010°06'611.4
2017-Aug-18 04:30N 43°19' E 010°00'611.5
2017-Aug-18 04:00N 43°17' E 009°53'611.3
2017-Aug-18 03:30N 43°15' E 009°45'611.2
2017-Aug-18 03:00N 43°14' E 009°38'611.0
2017-Aug-18 02:30N 43°12' E 009°31'611.1
2017-Aug-18 02:00N 43°10' E 009°24'510.9
2017-Aug-18 01:30N 43°08' E 009°17'611.0
2017-Aug-18 01:00N 43°07' E 009°09'611.6
2017-Aug-18 00:30N 43°05' E 009°02'611.9
2017-Aug-17 23:59N 43°02' E 008°54'611.9
2017-Aug-17 23:30N 43°00' E 008°47'811.8
2017-Aug-17 22:49N 42°58' E 008°36'411.7
2017-Aug-17 22:30N 42°57' E 008°31'4711.9
2017-Aug-17 18:35N 42°42' E 007°31'111.8
2017-Aug-17 18:30N 42°41' E 007°30'2511.3
2017-Aug-17 16:17N 42°32' E 006°58'411.5
2017-Aug-17 15:55N 42°31' E 006°53'1711.0
2017-Aug-17 14:22N 42°26' E 006°31'411.7
2017-Aug-17 14:00N 42°25' E 006°25'611.8
2017-Aug-17 13:30N 42°23' E 006°17'2011.5
2017-Aug-17 11:43N 42°15' E 005°52'311.7
2017-Aug-17 11:31N 42°14' E 005°49'911.8
2017-Aug-17 10:43N 42°11' E 005°37'311.7
2017-Aug-17 10:30N 42°10' E 005°34'611.7
2017-Aug-17 10:00N 42°08' E 005°27'611.5
2017-Aug-17 09:30N 42°06' E 005°19'711.4
2017-Aug-17 08:55N 42°04' E 005°11'9711.4
2017-Aug-17 00:22N 41°31' E 003°08'411.4
2017-Aug-17 00:00N 41°30' E 003°03'611.7
2017-Aug-16 23:30N 41°28' E 002°55'1611.8
2017-Aug-16 22:11N 41°22' E 002°36'211.7
2017-Aug-16 21:59N 41°22' E 002°33'611.6
2017-Aug-16 21:31N 41°20' E 002°26'611.5
2017-Aug-16 21:00N 41°18' E 002°18'611.4
2017-Aug-16 20:29N 41°17' E 002°11'4 8.3
2017-Aug-16 20:00N 41°21' E 002°09'0 0.0
2017-Aug-16 08:37N 41°21' E 002°10'1 4.6
2017-Aug-16 08:29N 41°20' E 002°10'4 8.2
2017-Aug-16 08:00N 41°17' E 002°12'714.2
2017-Aug-16 07:30N 41°13' E 002°20'714.6
2017-Aug-16 07:00N 41°09' E 002°29'714.7
2017-Aug-16 06:30N 41°06' E 002°37'814.9
2017-Aug-16 06:00N 41°02' E 002°46'815.0
2017-Aug-16 05:30N 40°59' E 002°55'714.9
2017-Aug-16 05:00N 40°55' E 003°03'714.2
2017-Aug-16 04:30N 40°51' E 003°11'713.5
2017-Aug-16 04:00N 40°47' E 003°19'713.6
2017-Aug-16 03:27N 40°43' E 003°27'1 1.3
2017-Aug-16 02:45N 40°43' E 003°28'0 0.8
2017-Aug-16 02:28N 40°43' E 003°28'0 0.8
2017-Aug-16 02:00N 40°44' E 003°29'0 0.8
2017-Aug-16 01:30N 40°44' E 003°29'2 4.4
2017-Aug-16 01:00N 40°43' E 003°32'2513.2
2017-Aug-15 23:09N 40°31' E 003°60'213.7
2017-Aug-15 23:00N 40°31' E 004°02'1913.6
2017-Aug-15 21:36N 40°22' E 004°25'113.7
2017-Aug-15 21:30N 40°21' E 004°26'713.9
2017-Aug-15 21:00N 40°17' E 004°34'1314.0
2017-Aug-15 20:02N 40°11' E 004°49'113.9
2017-Aug-15 19:56N 40°10' E 004°51'1414.2
2017-Aug-15 18:59N 40°04' E 005°06'1914.1
2017-Aug-15 17:37N 39°54' E 005°28'214.3
2017-Aug-15 17:30N 39°54' E 005°30'714.2
2017-Aug-15 16:59N 39°50' E 005°39'714.2
2017-Aug-15 16:30N 39°47' E 005°46'714.2
2017-Aug-15 16:00N 39°43' E 005°54'713.9
2017-Aug-15 15:30N 39°40' E 006°02'2313.7
2017-Aug-15 13:50N 39°29' E 006°28'513.8
2017-Aug-15 13:29N 39°27' E 006°34'714.0
2017-Aug-15 13:00N 39°23' E 006°41'714.2
2017-Aug-15 12:30N 39°20' E 006°50'9313.6
2017-Aug-15 05:40N 38°43' E 008°40'214.0
2017-Aug-15 05:30N 38°43' E 008°43'5714.3
2017-Aug-15 01:32N 38°39' E 009°55'014.5
2017-Aug-15 01:30N 38°39' E 009°56'13914.2
2017-Aug-14 15:42N 38°28' E 012°53'314.0
2017-Aug-14 15:30N 38°27' E 012°56'713.9
2017-Aug-14 15:00N 38°27' E 013°05'714.1
2017-Aug-14 14:30N 38°26' E 013°14'714.2
2017-Aug-14 14:00N 38°26' E 013°23'714.3
2017-Aug-14 13:30N 38°25' E 013°32'814.0
2017-Aug-14 12:57N 38°24' E 013°42'4113.9
2017-Aug-14 10:00N 38°19' E 014°34'1013.6
2017-Aug-14 09:16N 38°18' E 014°46'513.8
2017-Aug-14 08:54N 38°17' E 014°53'613.9
2017-Aug-14 08:30N 38°17' E 014°60'713.8
2017-Aug-14 08:00N 38°18' E 015°08'713.3
2017-Aug-14 07:30N 38°19' E 015°17'713.4
2017-Aug-14 07:00N 38°21' E 015°25'612.8
2017-Aug-14 06:30N 38°21' E 015°33'713.2
2017-Aug-14 06:00N 38°18' E 015°41'5 9.7
2017-Aug-14 05:30N 38°14' E 015°37'612.1
2017-Aug-14 05:00N 38°08' E 015°37'611.9
2017-Aug-14 04:31N 38°02' E 015°36'713.1
2017-Aug-14 04:00N 37°56' E 015°37'812.9
2017-Aug-14 03:21N 37°52' E 015°47'40110.5
2017-Aug-12 13:12N 44°15' E 013°11'40 0.8
2017-Aug-10 11:18N 44°31' E 012°19'0 0.0
2017-Aug-10 11:00N 44°31' E 012°19'0 0.0
2017-Aug-10 10:19N 44°31' E 012°19'0 0.1
2017-Aug-10 10:00N 44°31' E 012°19'0 0.0
2017-Aug-10 09:29N 44°31' E 012°19'0 0.0
2017-Aug-10 08:52N 44°31' E 012°19'0 0.1
2017-Aug-10 08:30N 44°31' E 012°19'0 0.0
2017-Aug-10 08:00N 44°31' E 012°19'0 0.0
2017-Aug-10 07:28N 44°31' E 012°19'0 0.0
2017-Aug-10 06:54N 44°31' E 012°19'0 0.0
2017-Aug-10 05:54N 44°31' E 012°19'0 0.0
2017-Aug-10 05:30N 44°31' E 012°19'0 0.0
2017-Aug-10 05:00N 44°31' E 012°19'0 0.0
2017-Aug-10 04:10N 44°31' E 012°19'0 0.2
2017-Aug-10 03:56N 44°31' E 012°19'1 1.3
2017-Aug-10 03:30N 44°31' E 012°20'5 9.1
2017-Aug-10 03:00N 44°35' E 012°24'510.9
2017-Aug-10 02:30N 44°39' E 012°29'611.1
2017-Aug-10 02:00N 44°43' E 012°34'511.0
2017-Aug-10 01:30N 44°47' E 012°39'510.9
2017-Aug-10 01:00N 44°51' E 012°44'510.5
2017-Aug-10 00:30N 44°55' E 012°49'6 9.9
2017-Aug-09 23:56N 44°58' E 012°56'4 9.9
2017-Aug-09 23:30N 45°02' E 012°58'5 9.9
2017-Aug-09 23:00N 45°07' E 013°00'5 9.4
2017-Aug-09 22:30N 45°11' E 012°60'5 9.5
2017-Aug-09 22:00N 45°16' E 012°59'5 9.2
2017-Aug-09 21:30N 45°21' E 012°59'5 9.6
2017-Aug-09 21:00N 45°25' E 013°02'510.1
2017-Aug-09 20:30N 45°29' E 013°07'510.4
2017-Aug-09 20:00N 45°32' E 013°13'510.3
2017-Aug-09 19:30N 45°34' E 013°20'510.2
2017-Aug-09 19:00N 45°36' E 013°27'510.2
2017-Aug-09 18:30N 45°37' E 013°33'5 9.5
2017-Aug-09 18:00N 45°35' E 013°39'4 6.9
2017-Aug-09 17:26N 45°33' E 013°44'0 0.0
2017-Aug-09 16:50N 45°33' E 013°44'0 0.0
2017-Aug-09 16:29N 45°33' E 013°44'0 0.0
2017-Aug-09 15:56N 45°33' E 013°44'0 0.0
2017-Aug-09 15:26N 45°33' E 013°44'0 0.0
2017-Aug-09 14:59N 45°33' E 013°44'0 0.0
2017-Aug-09 14:23N 45°33' E 013°44'0 0.0
2017-Aug-09 13:56N 45°33' E 013°44'0 0.0
2017-Aug-09 13:30N 45°33' E 013°44'0 0.0
2017-Aug-09 13:00N 45°33' E 013°44'  

Dump ship's entire track history